Time;durP1;ratioP1;P1;durP2;ratioP2;P2;SDS_P1;SDS_P2;PMS_P1;PMS_P2;Temp;Humidity;BMP_temperature;BMP_pressure;BME280_temperature;BME280_humidity;BME280_pressure;Samples;Min_cycle;Max_cycle;Signal;HPM_P1;HPM_P2
2023/06/07 00:02:02;;;;;;;7.30;4.10;;;;;;;20.42;47.38;97512.41;5089957;28;20428;-70
2023/06/07 00:04:30;;;;;;;8.53;3.70;;;;;;;20.36;47.59;97507.09;5092065;28;20599;-72
2023/06/07 00:07:00;;;;;;;4.50;4.03;;;;;;;20.33;47.73;97511.00;5071194;28;20193;-71
2023/06/07 00:09:29;;;;;;;5.97;4.13;;;;;;;20.35;47.46;97516.13;5094910;28;20436;-70
2023/06/07 00:11:55;;;;;;;7.17;3.90;;;;;;;20.31;47.68;97506.91;5099844;28;20924;-70
2023/06/07 00:14:21;;;;;;;4.93;4.43;;;;;;;20.29;47.62;97507.09;5091904;28;20454;-69
2023/06/07 00:16:47;;;;;;;4.53;4.13;;;;;;;20.26;47.74;97507.53;5094429;28;20625;-69
2023/06/07 00:19:12;;;;;;;5.07;4.57;;;;;;;20.27;47.60;97503.84;5095432;28;20244;-68
2023/06/07 00:21:38;;;;;;;8.33;4.40;;;;;;;20.27;47.65;97498.53;5088303;28;20462;-71
2023/06/07 00:24:04;;;;;;;4.47;4.07;;;;;;;20.24;47.27;97498.94;5089136;28;20277;-70
2023/06/07 00:26:30;;;;;;;11.63;4.23;;;;;;;20.20;47.76;97498.53;5097657;28;20193;-69
2023/06/07 00:28:55;;;;;;;4.83;4.37;;;;;;;20.14;48.03;97510.00;5088341;28;20858;-69
2023/06/07 00:31:21;;;;;;;7.80;4.37;;;;;;;20.16;47.84;97512.47;5089029;28;20456;-70
2023/06/07 00:33:46;;;;;;;4.33;3.93;;;;;;;20.15;48.09;97505.50;5087257;28;20765;-69
2023/06/07 00:36:12;;;;;;;4.73;4.23;;;;;;;20.14;47.92;97503.88;5089363;28;20292;-69
2023/06/07 00:38:37;;;;;;;5.13;3.90;;;;;;;20.08;48.18;97508.16;5070197;28;20555;-70
2023/06/07 00:41:03;;;;;;;10.13;4.43;;;;;;;19.97;48.01;97506.94;5088474;28;20182;-70
2023/06/07 00:43:28;;;;;;;4.20;3.70;;;;;;;19.98;48.24;97511.25;5088276;28;20234;-70
2023/06/07 00:45:54;;;;;;;5.43;4.10;;;;;;;19.91;48.20;97499.78;5089304;28;20185;-70
2023/06/07 00:48:19;;;;;;;7.07;4.30;;;;;;;19.92;47.94;97501.41;5087731;28;20216;-70
2023/06/07 00:50:45;;;;;;;6.03;4.10;;;;;;;19.91;48.27;97499.78;5045109;28;20204;-69
2023/06/07 00:53:11;;;;;;;6.23;4.20;;;;;;;19.96;48.23;97502.63;5070085;28;20297;-71
2023/06/07 00:55:37;;;;;;;5.50;4.60;;;;;;;19.89;48.40;97507.16;5070019;28;20197;-70
2023/06/07 00:58:03;;;;;;;6.47;4.33;;;;;;;19.82;48.41;97507.13;5090421;28;20197;-72
2023/06/07 01:00:28;;;;;;;5.40;4.20;;;;;;;19.80;48.61;97499.34;5088647;28;20795;-70
2023/06/07 01:02:55;;;;;;;6.00;4.40;;;;;;;19.80;48.49;97502.00;5069585;28;20839;-70
2023/06/07 01:05:21;;;;;;;7.93;4.40;;;;;;;19.77;48.63;97504.25;5080536;28;20190;-69
2023/06/07 01:07:47;;;;;;;7.10;4.77;;;;;;;19.62;48.47;97499.13;5069250;28;21057;-69
2023/06/07 01:10:14;;;;;;;7.33;4.80;;;;;;;19.60;48.89;97503.81;5074726;28;20193;-70
2023/06/07 01:12:44;;;;;;;5.07;4.20;;;;;;;19.62;49.01;97499.13;5071338;28;20459;-71
2023/06/07 01:15:11;;;;;;;5.40;4.37;;;;;;;19.56;48.75;97500.75;5070173;28;20423;-70
2023/06/07 01:17:40;;;;;;;9.70;4.57;;;;;;;19.52;49.08;97496.88;5087646;28;20463;-70
2023/06/07 01:20:12;;;;;;;4.50;4.10;;;;;;;19.54;48.97;97494.81;5088799;28;20428;-71
2023/06/07 01:22:42;;;;;;;6.40;4.40;;;;;;;19.53;48.74;97497.69;5087518;28;20870;-69
2023/06/07 01:25:08;;;;;;;6.87;4.80;;;;;;;19.51;48.98;97495.22;5084833;28;20415;-70
2023/06/07 01:27:36;;;;;;;4.60;4.20;;;;;;;19.46;49.02;97497.69;5091324;28;20518;-71
2023/06/07 01:30:03;;;;;;;4.30;3.90;;;;;;;19.42;49.19;97491.94;5053098;28;21169;-69
2023/06/07 01:32:28;;;;;;;8.53;4.53;;;;;;;19.43;49.07;97498.88;5069845;28;20499;-70
2023/06/07 01:34:54;;;;;;;6.53;4.67;;;;;;;19.31;49.02;97496.03;5069119;28;20526;-68
2023/06/07 01:37:20;;;;;;;5.10;4.40;;;;;;;19.31;49.37;97488.06;5088591;28;20428;-68
2023/06/07 01:39:46;;;;;;;5.10;4.37;;;;;;;19.30;49.39;97493.53;5068373;28;20222;-70
2023/06/07 01:42:11;;;;;;;4.10;3.80;;;;;;;19.29;49.32;97494.56;5096494;28;20217;-69
2023/06/07 01:44:41;;;;;;;6.03;4.50;;;;;;;19.26;49.44;97493.13;5086960;28;20274;-69
2023/06/07 01:47:07;;;;;;;4.93;4.50;;;;;;;19.26;49.37;97489.69;5087272;28;20208;-70
2023/06/07 01:49:32;;;;;;;6.00;5.00;;;;;;;19.17;49.85;97483.72;5095864;28;20456;-68
2023/06/07 01:51:57;;;;;;;5.20;4.57;;;;;;;19.18;49.86;97483.50;5089453;28;20428;-71
2023/06/07 01:54:23;;;;;;;5.63;4.33;;;;;;;19.17;49.55;97489.84;5097085;28;20238;-70
2023/06/07 01:56:51;;;;;;;6.03;4.30;;;;;;;19.08;49.90;97487.59;5052427;28;20536;-70
2023/06/07 01:59:44;;;;;;;5.20;4.60;;;;;;;19.07;49.76;97486.75;5096227;28;20210;-69
2023/06/07 02:02:32;;;;;;;5.43;4.50;;;;;;;19.05;49.88;97488.78;5087650;28;20929;-72
2023/06/07 02:05:02;;;;;;;6.20;5.13;;;;;;;19.03;49.41;97490.81;5083436;28;20941;-69
2023/06/07 02:07:31;;;;;;;5.87;4.83;;;;;;;19.02;49.73;97491.88;5093283;28;20460;-68
2023/06/07 02:09:57;;;;;;;5.50;4.63;;;;;;;18.99;49.99;97482.44;5072540;28;20431;-69
2023/06/07 02:12:22;;;;;;;9.70;4.90;;;;;;;18.97;50.05;97484.47;5088970;28;20521;-69
2023/06/07 02:14:52;;;;;;;5.60;4.50;;;;;;;18.97;49.88;97479.16;5073634;28;20192;-69
2023/06/07 02:17:19;;;;;;;6.37;4.20;;;;;;;18.97;50.17;97481.00;5072335;28;20185;-69
2023/06/07 02:19:45;;;;;;;6.47;5.07;;;;;;;18.99;49.88;97478.97;5087404;28;20442;-70
2023/06/07 02:22:12;;;;;;;5.03;4.27;;;;;;;18.97;49.84;97473.03;5065121;28;20420;-69
2023/06/07 02:24:38;;;;;;;5.00;4.50;;;;;;;18.95;49.38;97481.22;5089422;28;20185;-70
2023/06/07 02:27:04;;;;;;;6.73;4.80;;;;;;;18.87;49.94;97481.34;5086958;28;20489;-71
2023/06/07 02:29:29;;;;;;;5.20;4.20;;;;;;;18.86;50.04;97480.53;5092847;28;20948;-72
2023/06/07 02:31:57;;;;;;;5.20;4.70;;;;;;;18.82;49.93;97489.09;5087336;28;20314;-69
2023/06/07 02:34:23;;;;;;;6.33;4.40;;;;;;;18.82;50.11;97476.63;5094055;28;20194;-70
2023/06/07 02:36:48;;;;;;;5.97;5.37;;;;;;;18.76;50.15;97482.75;5086697;28;20467;-70
2023/06/07 02:39:14;;;;;;;6.47;5.10;;;;;;;18.70;49.91;97487.00;5091388;28;20681;-71
2023/06/07 02:41:39;;;;;;;5.60;4.67;;;;;;;18.65;50.18;97480.66;5094317;28;20190;-70
2023/06/07 02:44:05;;;;;;;5.70;4.40;;;;;;;18.65;50.32;97485.97;5094640;28;20205;-71
2023/06/07 02:46:31;;;;;;;13.73;4.90;;;;;;;18.64;50.29;97487.00;5086147;28;20204;-70
2023/06/07 02:48:56;;;;;;;4.97;4.47;;;;;;;18.61;50.17;97484.72;5086162;28;20228;-70
2023/06/07 02:51:21;;;;;;;5.17;4.70;;;;;;;18.55;50.64;97487.13;5086691;28;20196;-69
2023/06/07 02:53:49;;;;;;;5.30;4.60;;;;;;;18.56;50.33;97488.78;5089733;28;20217;-69
2023/06/07 02:56:14;;;;;;;5.33;4.83;;;;;;;18.49;50.47;97479.97;5088840;28;20190;-68
2023/06/07 02:58:40;;;;;;;4.60;4.30;;;;;;;18.47;50.62;97474.03;5090503;28;20462;-68
2023/06/07 03:01:07;;;;;;;5.33;4.30;;;;;;;18.49;50.74;97479.13;5089599;28;20216;-70
2023/06/07 03:03:36;;;;;;;5.00;4.50;;;;;;;18.45;50.38;97481.38;5083103;28;20174;-69
2023/06/07 03:06:07;;;;;;;7.10;4.60;;;;;;;18.40;50.77;97483.78;5090152;28;20935;-70
2023/06/07 03:08:33;;;;;;;6.73;4.90;;;;;;;18.36;50.26;97486.00;5068682;28;20483;-70
2023/06/07 03:10:58;;;;;;;8.10;4.53;;;;;;;18.32;50.48;97487.44;5071766;28;20520;-71
2023/06/07 03:13:24;;;;;;;10.50;4.50;;;;;;;18.33;50.70;97482.94;5071741;28;20220;-69
2023/06/07 03:15:50;;;;;;;8.50;4.80;;;;;;;18.34;50.74;97477.41;5093470;28;20190;-70
2023/06/07 03:18:15;;;;;;;5.40;4.90;;;;;;;18.29;50.74;97490.47;5091926;28;20247;-70
2023/06/07 03:20:42;;;;;;;7.93;4.80;;;;;;;18.29;50.67;97494.94;5096157;28;20193;-69
2023/06/07 03:23:07;;;;;;;5.10;4.60;;;;;;;18.28;50.61;97502.09;5092686;28;20264;-70
2023/06/07 03:25:33;;;;;;;5.20;4.50;;;;;;;18.23;51.05;97489.41;5097063;28;20975;-70
2023/06/07 03:27:58;;;;;;;7.73;4.97;;;;;;;18.22;50.89;97492.25;5090952;28;20205;-72
2023/06/07 03:30:24;;;;;;;4.97;4.50;;;;;;;18.15;50.94;97497.50;5089838;28;20976;-70
2023/06/07 03:32:50;;;;;;;4.97;4.57;;;;;;;18.18;51.19;97485.69;5083262;28;20678;-70
2023/06/07 03:35:16;;;;;;;5.23;4.73;;;;;;;18.19;51.18;97488.16;5068884;28;20194;-70
2023/06/07 03:37:42;;;;;;;6.43;4.97;;;;;;;18.20;51.03;97497.75;5088071;28;20467;-68
2023/06/07 03:40:08;;;;;;;4.87;4.37;;;;;;;18.19;51.24;97493.47;5088359;28;20644;-69
2023/06/07 03:42:33;;;;;;;5.37;4.87;;;;;;;18.21;51.16;97496.75;5089112;28;20190;-70
2023/06/07 03:44:59;;;;;;;5.50;4.60;;;;;;;18.17;50.75;97495.47;5071549;28;20502;-71
2023/06/07 03:47:25;;;;;;;5.43;4.90;;;;;;;18.17;51.17;97495.47;5088307;28;20205;-69
2023/06/07 03:49:50;;;;;;;5.90;5.20;;;;;;;18.16;51.01;97498.34;5084734;28;20662;-70
2023/06/07 03:52:16;;;;;;;5.43;4.93;;;;;;;18.11;51.74;97496.28;5088593;28;20213;-69
2023/06/07 03:54:41;;;;;;;5.03;4.53;;;;;;;18.05;51.68;97495.22;5082305;28;20273;-73
2023/06/07 03:57:07;;;;;;;5.47;4.80;;;;;;;18.07;51.57;97497.66;5069460;28;20880;-70
2023/06/07 03:59:32;;;;;;;5.20;4.80;;;;;;;18.06;51.48;97491.53;5085059;28;20556;-70
2023/06/07 04:01:58;;;;;;;5.97;5.10;;;;;;;18.10;51.01;97494.63;5083596;28;20524;-72
2023/06/07 04:04:27;;;;;;;9.53;5.20;;;;;;;18.09;51.23;97498.28;5088495;28;20189;-70
2023/06/07 04:06:53;;;;;;;7.60;5.47;;;;;;;18.10;51.40;97494.63;5090002;28;20800;-70
2023/06/07 04:09:19;;;;;;;5.63;5.03;;;;;;;18.12;51.63;97492.59;5082231;28;21114;-70
2023/06/07 04:11:45;;;;;;;5.30;4.53;;;;;;;18.15;51.67;97492.19;5084251;28;20526;-69
2023/06/07 04:14:10;;;;;;;5.33;4.80;;;;;;;18.17;51.51;97494.66;5087710;28;20217;-72
2023/06/07 04:16:36;;;;;;;6.80;5.13;;;;;;;18.17;51.34;97494.66;5092296;28;20561;-70
2023/06/07 04:19:01;;;;;;;9.90;5.27;;;;;;;18.15;51.88;97494.03;5085097;28;20198;-70
2023/06/07 04:21:27;;;;;;;7.30;5.07;;;;;;;18.15;51.71;97494.84;5085545;28;20205;-70
2023/06/07 04:23:52;;;;;;;6.30;5.03;;;;;;;18.15;51.60;97502.81;5088936;28;20250;-70
2023/06/07 04:26:21;;;;;;;6.00;5.50;;;;;;;18.21;51.91;97504.69;5088328;28;20272;-70
2023/06/07 04:28:49;;;;;;;6.70;5.67;;;;;;;18.22;51.76;97500.19;5070650;28;20719;-72
2023/06/07 04:31:15;;;;;;;5.80;5.30;;;;;;;18.20;51.87;97500.41;5081137;28;20439;-71
2023/06/07 04:33:42;;;;;;;6.27;4.97;;;;;;;18.20;52.14;97495.09;5069279;28;20840;-71
2023/06/07 04:36:08;;;;;;;6.07;5.17;;;;;;;18.25;52.15;97500.66;5090177;28;20208;-72
2023/06/07 04:38:34;;;;;;;9.63;5.43;;;;;;;18.29;52.02;97501.06;5069021;28;20451;-71
2023/06/07 04:41:00;;;;;;;5.47;4.67;;;;;;;18.35;51.96;97500.28;5086896;28;20435;-70
2023/06/07 04:43:26;;;;;;;5.43;4.77;;;;;;;18.36;51.96;97506.44;5086665;28;20264;-70
2023/06/07 04:45:54;;;;;;;6.07;5.47;;;;;;;18.40;52.06;97499.69;5079013;28;20531;-69
2023/06/07 04:48:25;;;;;;;5.60;5.10;;;;;;;18.47;52.24;97494.44;5080896;28;20240;-71
2023/06/07 04:50:51;;;;;;;7.00;5.47;;;;;;;18.52;51.80;97497.31;5070197;28;20497;-70
2023/06/07 04:53:21;;;;;;;5.40;4.93;;;;;;;18.57;52.15;97500.22;5094090;28;20521;-71
2023/06/07 04:55:50;;;;;;;5.80;5.23;;;;;;;18.60;52.03;97496.34;5083536;28;20493;-70
2023/06/07 04:58:16;;;;;;;7.50;6.33;;;;;;;18.63;52.33;97498.63;5086553;28;20452;-70
2023/06/07 05:00:42;;;;;;;6.30;5.47;;;;;;;18.50;52.46;97500.19;5087682;28;20550;-72
2023/06/07 05:03:08;;;;;;;7.63;5.90;;;;;;;18.42;52.58;97498.50;5064641;28;20649;-70
2023/06/07 05:05:36;;;;;;;8.77;5.20;;;;;;;18.49;52.63;97500.38;5088173;28;20563;-71
2023/06/07 05:08:02;;;;;;;6.77;5.13;;;;;;;18.48;52.69;97507.53;5086164;28;20232;-71
2023/06/07 05:10:28;;;;;;;5.87;5.37;;;;;;;18.48;52.92;97502.22;5083089;28;20429;-70
2023/06/07 05:12:53;;;;;;;6.03;5.40;;;;;;;18.50;53.13;97509.97;5062856;28;20668;-70
2023/06/07 05:15:21;;;;;;;9.00;5.50;;;;;;;18.53;53.33;97505.06;5064591;28;20205;-70
2023/06/07 05:17:48;;;;;;;7.13;5.90;;;;;;;18.64;53.20;97510.88;5082655;28;20218;-70
2023/06/07 05:20:15;;;;;;;6.57;5.30;;;;;;;18.80;53.28;97515.84;5076853;28;20458;-71
2023/06/07 05:22:40;;;;;;;6.10;5.60;;;;;;;18.87;52.97;97511.38;5087826;28;20789;-70
2023/06/07 05:25:08;;;;;;;6.30;5.70;;;;;;;18.83;53.34;97515.44;5082648;28;20462;-71
2023/06/07 05:27:35;;;;;;;8.03;5.80;;;;;;;18.92;53.20;97508.13;5086991;28;20272;-72
2023/06/07 05:30:02;;;;;;;6.03;5.37;;;;;;;18.98;53.38;97502.03;5070128;28;21024;-70
2023/06/07 05:32:27;;;;;;;6.47;5.30;;;;;;;19.13;53.28;97509.88;5084063;28;20470;-69
2023/06/07 05:34:52;;;;;;;7.40;5.20;;;;;;;19.19;53.31;97514.38;5075338;28;20431;-70
2023/06/07 05:37:18;;;;;;;7.30;6.07;;;;;;;19.32;53.29;97518.09;5085900;28;20189;-69
2023/06/07 05:39:46;;;;;;;10.87;5.70;;;;;;;19.43;53.27;97514.84;5069358;28;20206;-69
2023/06/07 05:42:12;;;;;;;7.40;5.87;;;;;;;19.60;52.81;97509.16;5085960;28;20242;-71
2023/06/07 05:44:37;;;;;;;6.43;5.83;;;;;;;19.73;52.85;97513.63;5085105;28;20443;-71
2023/06/07 05:47:03;;;;;;;14.27;6.13;;;;;;;19.84;52.30;97510.41;5080574;28;20253;-70
2023/06/07 05:49:28;;;;;;;11.20;6.10;;;;;;;20.03;52.02;97522.09;5085909;28;20209;-72
2023/06/07 05:51:54;;;;;;;6.77;5.70;;;;;;;20.18;51.50;97515.72;5083868;28;20197;-71
2023/06/07 05:54:19;;;;;;;7.90;6.07;;;;;;;20.24;50.99;97514.91;5084190;28;20202;-70
2023/06/07 05:56:45;;;;;;;8.33;5.97;;;;;;;20.39;50.79;97507.50;5086952;28;20659;-70
2023/06/07 05:59:10;;;;;;;6.70;6.07;;;;;;;20.46;50.75;97509.31;5083842;28;20826;-71
2023/06/07 06:01:36;;;;;;;6.97;5.90;;;;;;;20.57;50.63;97514.00;5065850;28;20242;-71
2023/06/07 06:04:02;;;;;;;7.77;6.70;;;;;;;20.74;50.28;97508.22;5064516;28;20186;-71
2023/06/07 06:06:28;;;;;;;11.77;6.60;;;;;;;20.92;49.91;97513.69;5084669;28;20431;-71
2023/06/07 06:08:53;;;;;;;10.77;6.03;;;;;;;21.10;49.88;97507.72;5081586;28;20570;-70
2023/06/07 06:11:19;;;;;;;7.53;6.00;;;;;;;21.24;49.15;97513.78;5084444;28;20220;-70
2023/06/07 06:13:45;;;;;;;9.47;6.40;;;;;;;21.43;49.03;97512.03;5085015;28;20210;-70
2023/06/07 06:16:10;;;;;;;7.03;5.90;;;;;;;21.59;48.50;97516.03;5085039;28;20193;-71
2023/06/07 06:18:35;;;;;;;6.70;5.43;;;;;;;21.75;48.56;97509.38;5080379;28;20214;-70
2023/06/07 06:21:01;;;;;;;5.53;4.83;;;;;;;21.84;47.89;97517.91;5082665;28;20220;-70
2023/06/07 06:23:26;;;;;;;8.10;5.50;;;;;;;22.01;47.48;97512.03;5094539;28;20247;-71
2023/06/07 06:25:52;;;;;;;6.63;5.13;;;;;;;22.15;46.87;97510.91;5087204;28;20194;-69
2023/06/07 06:28:17;;;;;;;6.87;6.20;;;;;;;22.24;46.27;97508.78;5056854;28;20201;-69
2023/06/07 06:30:43;;;;;;;8.70;5.13;;;;;;;22.37;46.55;97507.81;5087572;28;20955;-70
2023/06/07 06:33:10;;;;;;;7.77;6.97;;;;;;;22.53;46.22;97504.59;5093838;28;21009;-72
2023/06/07 06:35:35;;;;;;;8.00;4.97;;;;;;;22.66;45.85;97503.63;5091264;28;20487;-71
2023/06/07 06:38:01;;;;;;;11.70;5.37;;;;;;;22.81;45.90;97510.44;5090220;28;20910;-68
2023/06/07 06:40:27;;;;;;;10.00;5.33;;;;;;;22.94;45.61;97509.44;5096208;28;20208;-69
2023/06/07 06:42:53;;;;;;;6.77;5.07;;;;;;;23.05;45.25;97507.88;5095505;28;20192;-69
2023/06/07 06:45:18;;;;;;;6.40;5.50;;;;;;;23.13;44.96;97502.22;5090219;28;20193;-69
2023/06/07 06:47:44;;;;;;;6.63;5.50;;;;;;;23.23;44.98;97507.06;5090423;28;20437;-70
2023/06/07 06:50:11;;;;;;;5.67;4.83;;;;;;;23.36;45.02;97504.22;5093346;28;20193;-70
2023/06/07 06:52:38;;;;;;;6.87;5.33;;;;;;;23.50;44.65;97506.69;5090928;28;20216;-70
2023/06/07 06:55:03;;;;;;;6.30;5.70;;;;;;;23.50;44.01;97512.03;5093948;28;21017;-69
2023/06/07 06:57:29;;;;;;;8.80;6.03;;;;;;;23.59;43.90;97516.84;5090192;28;20459;-69
2023/06/07 06:59:54;;;;;;;8.00;5.23;;;;;;;23.71;43.59;97513.38;5087899;28;20197;-71
2023/06/07 07:02:20;;;;;;;8.97;5.97;;;;;;;23.82;43.27;97520.59;5092417;28;20221;-70
2023/06/07 07:04:46;;;;;;;6.90;6.30;;;;;;;23.93;43.18;97516.31;5090275;28;20204;-70
2023/06/07 07:07:11;;;;;;;8.10;6.20;;;;;;;23.88;42.81;97518.88;5098228;28;20191;-69
2023/06/07 07:09:37;;;;;;;10.70;5.33;;;;;;;23.95;43.09;97514.22;5097237;28;20745;-69
2023/06/07 07:12:02;;;;;;;6.70;5.60;;;;;;;24.09;42.94;97512.16;5089871;28;20217;-69
2023/06/07 07:14:28;;;;;;;5.70;5.20;;;;;;;24.16;42.99;97514.72;5090556;28;20197;-70
2023/06/07 07:16:53;;;;;;;15.97;5.77;;;;;;;24.26;42.54;97514.97;5098649;28;20281;-68
2023/06/07 07:19:19;;;;;;;8.53;4.90;;;;;;;24.34;42.21;97517.28;5089527;28;20618;-69
2023/06/07 07:21:44;;;;;;;4.50;4.20;;;;;;;24.42;41.99;97518.78;5090513;28;20212;-70
2023/06/07 07:24:10;;;;;;;9.43;5.03;;;;;;;24.49;42.04;97524.84;5097576;28;20632;-70
2023/06/07 07:26:35;;;;;;;6.13;4.60;;;;;;;24.50;41.86;97531.00;5090532;28;20212;-70
2023/06/07 07:29:01;;;;;;;14.33;5.53;;;;;;;24.54;41.57;97534.88;5088764;28;20237;-68
2023/06/07 07:31:30;;;;;;;5.03;4.60;;;;;;;24.61;41.19;97522.16;5089138;28;20200;-68
2023/06/07 07:33:56;;;;;;;4.93;4.43;;;;;;;24.65;41.13;97517.97;5089202;28;20464;-69
2023/06/07 07:36:22;;;;;;;8.90;3.90;;;;;;;24.74;41.16;97521.13;5097298;28;20427;-69
2023/06/07 07:38:48;;;;;;;5.07;3.93;;;;;;;24.84;41.43;97515.13;5084425;28;20506;-69
2023/06/07 07:41:14;;;;;;;6.97;3.83;;;;;;;24.94;40.79;97519.91;5088465;28;20913;-70
2023/06/07 07:43:39;;;;;;;3.73;3.43;;;;;;;24.97;40.62;97519.44;5088906;28;20460;-69
2023/06/07 07:46:05;;;;;;;5.13;3.13;;;;;;;25.05;40.47;97511.00;5088929;28;20216;-69
2023/06/07 07:48:31;;;;;;;9.63;3.93;;;;;;;25.20;40.95;97517.72;5098830;28;20222;-70
2023/06/07 07:50:56;;;;;;;12.63;3.27;;;;;;;25.21;40.03;97513.97;5089468;28;20196;-70
2023/06/07 07:53:22;;;;;;;3.87;3.33;;;;;;;25.18;40.26;97515.28;5088392;28;20284;-70
2023/06/07 07:55:47;;;;;;;4.93;4.40;;;;;;;25.34;40.08;97523.59;5089621;28;20200;-70
2023/06/07 07:58:12;;;;;;;5.33;3.57;;;;;;;25.47;39.95;97512.59;5054036;28;20250;-69
2023/06/07 08:00:40;;;;;;;4.53;3.50;;;;;;;25.58;39.92;97519.75;5091729;28;20632;-70
2023/06/07 08:03:05;;;;;;;4.00;3.70;;;;;;;25.21;39.82;97520.13;5088032;28;20196;-70
2023/06/07 08:05:31;;;;;;;3.47;3.17;;;;;;;25.42;39.96;97520.56;5089259;28;20840;-69
2023/06/07 08:07:57;;;;;;;3.47;2.90;;;;;;;25.61;39.45;97518.47;5088576;28;20240;-69
2023/06/07 08:10:22;;;;;;;6.60;3.13;;;;;;;25.61;38.75;97516.59;5087282;28;20189;-70
2023/06/07 08:12:48;;;;;;;3.10;2.90;;;;;;;25.80;38.76;97513.69;5088546;28;20222;-70
2023/06/07 08:15:13;;;;;;;3.80;3.07;;;;;;;25.98;38.83;97511.81;5095608;28;20188;-69
2023/06/07 08:17:39;;;;;;;5.20;3.03;;;;;;;26.16;37.96;97510.78;5088596;28;20186;-70
2023/06/07 08:20:07;;;;;;;3.40;2.73;;;;;;;26.33;37.83;97502.72;5088700;28;20626;-69
2023/06/07 08:22:32;;;;;;;7.90;3.40;;;;;;;26.47;37.95;97503.97;5089378;28;20365;-69
2023/06/07 08:24:57;;;;;;;8.10;3.10;;;;;;;26.57;37.30;97508.66;5096613;28;21019;-69
2023/06/07 08:27:23;;;;;;;8.90;3.17;;;;;;;26.70;37.09;97507.50;5098121;28;20236;-70
2023/06/07 08:29:48;;;;;;;3.87;3.13;;;;;;;26.79;36.29;97510.56;5093128;28;20241;-69
2023/06/07 08:32:14;;;;;;;3.20;2.90;;;;;;;26.90;36.53;97506.16;5088259;28;20269;-70
2023/06/07 08:34:40;;;;;;;4.10;3.03;;;;;;;26.99;36.57;97504.63;5088091;28;20217;-69
2023/06/07 08:37:06;;;;;;;4.80;3.03;;;;;;;27.03;35.96;97499.59;5088755;28;20356;-70
2023/06/07 08:39:32;;;;;;;6.93;3.20;;;;;;;27.03;35.84;97504.97;5088825;28;20822;-70
2023/06/07 08:41:57;;;;;;;5.37;3.17;;;;;;;27.10;35.60;97498.28;5089255;28;20238;-68
2023/06/07 08:44:23;;;;;;;4.57;2.87;;;;;;;27.27;35.87;97500.09;5088210;28;20188;-67
2023/06/07 08:46:49;;;;;;;3.93;3.17;;;;;;;27.24;35.24;97496.03;5069933;28;20197;-70
2023/06/07 08:49:15;;;;;;;3.33;3.03;;;;;;;27.35;34.74;97501.50;5093029;28;20263;-70
2023/06/07 08:51:42;;;;;;;4.10;3.57;;;;;;;27.36;34.74;97503.94;5100310;28;20435;-69
2023/06/07 08:54:09;;;;;;;2.80;2.60;;;;;;;27.38;35.20;97507.19;5087864;28;20201;-70
2023/06/07 08:56:35;;;;;;;5.13;3.20;;;;;;;27.55;35.45;97501.72;5070232;28;20808;-70
2023/06/07 08:59:04;;;;;;;3.33;2.90;;;;;;;27.78;35.34;97498.97;5069835;28;20444;-70
2023/06/07 09:01:29;;;;;;;7.40;3.33;;;;;;;27.86;34.94;97501.16;5092017;28;20694;-70
2023/06/07 09:03:55;;;;;;;3.07;2.83;;;;;;;27.80;33.88;97507.59;5086219;28;20428;-70
2023/06/07 09:06:22;;;;;;;3.30;2.93;;;;;;;27.73;34.11;97505.91;5089757;28;20190;-70
2023/06/07 09:08:48;;;;;;;4.00;2.90;;;;;;;27.84;34.83;97506.81;5087846;28;20217;-69
2023/06/07 09:11:14;;;;;;;3.20;2.93;;;;;;;28.07;34.03;97507.53;5069236;28;20444;-70
2023/06/07 09:13:40;;;;;;;3.13;2.83;;;;;;;28.20;33.28;97511.69;5088046;28;20998;-69
2023/06/07 09:16:05;;;;;;;3.20;2.60;;;;;;;28.42;33.83;97508.84;5096504;28;20513;-72
2023/06/07 09:18:44;;;;;;;7.37;3.10;;;;;;;28.23;32.75;97504.97;5074318;28;20208;-70
2023/06/07 09:21:20;;;;;;;5.53;2.90;;;;;;;27.92;33.81;97510.09;5087054;28;20272;-70
2023/06/07 09:23:45;;;;;;;4.60;2.63;;;;;;;27.83;34.75;97501.72;5085820;28;20939;-71
2023/06/07 09:26:11;;;;;;;3.13;2.40;;;;;;;27.85;33.20;97505.75;5090056;28;20431;-69
2023/06/07 09:28:37;;;;;;;2.70;2.50;;;;;;;27.72;32.86;97500.81;5091583;28;20219;-69
2023/06/07 09:31:04;;;;;;;3.67;2.37;;;;;;;27.50;33.69;97508.94;5091429;28;20189;-69
2023/06/07 09:33:34;;;;;;;3.07;2.80;;;;;;;27.34;33.65;97510.66;5087115;28;20456;-69
2023/06/07 09:36:08;;;;;;;2.87;2.67;;;;;;;27.37;33.29;97504.78;5087494;28;20848;-70
2023/06/07 09:38:34;;;;;;;3.03;2.83;;;;;;;27.47;33.24;97504.09;5086799;28;20443;-71
2023/06/07 09:41:00;;;;;;;5.70;2.03;;;;;;;27.72;33.37;97495.41;5087847;28;20514;-70
2023/06/07 09:43:26;;;;;;;5.73;2.40;;;;;;;27.97;32.43;97497.50;5086717;28;20428;-70
2023/06/07 09:45:55;;;;;;;2.40;2.20;;;;;;;28.28;32.93;97496.94;5094262;28;20438;-69
2023/06/07 09:48:21;;;;;;;5.83;2.70;;;;;;;28.59;32.17;97497.91;5088914;28;20737;-71
2023/06/07 09:50:56;;;;;;;5.23;2.67;;;;;;;28.73;30.41;97490.16;5087545;28;20518;-69
2023/06/07 09:53:22;;;;;;;2.30;2.10;;;;;;;28.85;31.43;97489.94;5086935;28;20211;-70
2023/06/07 09:55:47;;;;;;;3.70;2.10;;;;;;;29.05;31.73;97488.38;5053224;28;20956;-70
2023/06/07 09:58:23;;;;;;;3.80;2.27;;;;;;;29.33;30.66;97497.09;5087331;28;20210;-69
2023/06/07 10:00:49;;;;;;;6.77;2.00;;;;;;;29.27;30.05;97491.66;5091884;28;20189;-70
2023/06/07 10:03:16;;;;;;;3.13;1.70;;;;;;;29.11;30.74;97495.44;5092840;28;20480;-69
2023/06/07 10:05:43;;;;;;;2.37;2.17;;;;;;;29.07;30.61;97494.31;5068680;28;20189;-68
2023/06/07 10:08:09;;;;;;;6.00;2.30;;;;;;;28.85;30.76;97498.03;5085712;28;20470;-70
2023/06/07 10:10:35;;;;;;;2.80;2.33;;;;;;;28.47;31.29;97494.59;5077078;28;20467;-69
2023/06/07 10:13:04;;;;;;;2.97;1.87;;;;;;;28.59;31.05;97480.91;5091067;28;20450;-70
2023/06/07 10:15:30;;;;;;;2.37;2.17;;;;;;;28.81;30.90;97483.47;5089622;28;20278;-70
2023/06/07 10:18:14;;;;;;;3.93;2.00;;;;;;;29.03;30.33;97479.75;5072681;28;20539;-70
2023/06/07 10:20:48;;;;;;;4.80;2.33;;;;;;;29.34;29.86;97479.84;5086794;28;20181;-69
2023/06/07 10:23:17;;;;;;;2.87;2.10;;;;;;;29.56;29.70;97484.97;5067532;28;20416;-69
2023/06/07 10:25:53;;;;;;;5.47;2.03;;;;;;;29.55;29.86;97486.88;5073385;28;20944;-69
2023/06/07 10:28:18;;;;;;;4.33;1.80;;;;;;;29.58;30.75;97472.84;5071715;28;21299;-69
2023/06/07 10:31:12;;;;;;;1.90;1.80;;;;;;;29.34;30.49;97485.25;5091525;28;20511;-69
2023/06/07 10:33:38;;;;;;;2.27;1.57;;;;;;;29.51;31.10;97474.19;5068792;28;20574;-69
2023/06/07 10:36:07;;;;;;;2.40;2.20;;;;;;;29.78;30.75;97473.91;5098188;28;20423;-68
2023/06/07 10:38:33;;;;;;;2.00;1.80;;;;;;;30.05;30.58;97475.53;5101240;28;20464;-68
2023/06/07 10:41:00;;;;;;;3.47;2.20;;;;;;;30.10;29.82;97480.94;5092921;28;20427;-69
2023/06/07 10:43:27;;;;;;;2.57;2.13;;;;;;;30.27;29.36;97469.00;5072146;28;20186;-69
2023/06/07 10:46:19;;;;;;;4.93;2.17;;;;;;;30.23;29.01;97470.66;5097088;28;20438;-70
2023/06/07 10:48:45;;;;;;;3.60;2.00;;;;;;;30.39;28.44;97463.31;5087191;28;20448;-70
2023/06/07 10:51:15;;;;;;;4.00;2.03;;;;;;;30.32;29.31;97455.47;5090369;28;20928;-70
2023/06/07 10:53:49;;;;;;;3.37;2.43;;;;;;;30.39;28.08;97461.41;5085882;28;20557;-71
2023/06/07 10:56:35;;;;;;;3.60;2.00;;;;;;;30.67;28.12;97455.66;5090031;28;20427;-69
2023/06/07 10:59:12;;;;;;;2.53;1.70;;;;;;;30.94;27.39;97461.44;5101160;28;20552;-70
2023/06/07 11:01:38;;;;;;;2.20;2.00;;;;;;;31.13;27.29;97462.75;5094554;28;20427;-69
2023/06/07 11:04:04;;;;;;;2.20;2.00;;;;;;;31.18;27.52;97463.53;5069753;28;20545;-70
2023/06/07 11:06:32;;;;;;;4.80;2.20;;;;;;;31.35;27.52;97457.72;5089577;28;20177;-70
2023/06/07 11:09:21;;;;;;;2.30;2.03;;;;;;;31.14;28.62;97464.34;5098520;28;20500;-70
2023/06/07 11:11:47;;;;;;;2.70;2.23;;;;;;;30.82;27.80;97460.19;5082875;28;20419;-69
2023/06/07 11:14:13;;;;;;;4.40;2.53;;;;;;;30.64;28.62;97460.53;5093891;28;20516;-70
2023/06/07 11:16:39;;;;;;;2.40;1.73;;;;;;;30.60;28.78;97455.97;5054187;28;20322;-69
2023/06/07 11:19:12;;;;;;;1.83;1.60;;;;;;;30.84;28.60;97463.41;5096687;28;20216;-70
2023/06/07 11:22:00;;;;;;;2.57;2.20;;;;;;;31.07;28.80;97451.09;5089685;28;20431;-70
2023/06/07 11:24:25;;;;;;;3.10;1.73;;;;;;;31.28;27.38;97457.22;5089034;28;21089;-70
2023/06/07 11:26:51;;;;;;;2.27;2.10;;;;;;;31.38;27.28;97449.03;5088580;28;20427;-72
2023/06/07 11:29:17;;;;;;;2.00;1.90;;;;;;;31.35;27.35;97455.03;5070847;28;20296;-71
2023/06/07 11:31:47;;;;;;;3.30;1.70;;;;;;;31.29;27.82;97445.31;5090550;28;20193;-70
2023/06/07 11:34:14;;;;;;;1.93;1.80;;;;;;;31.47;27.71;97448.44;5089422;28;20455;-70